sensor_id;sensor_type;location;lat;lon;timestamp;temperature;humidity
78649;DHT22;67962;47.310;9.642;2023-03-01T00:01:29;4.40;56.90
78649;DHT22;67962;47.310;9.642;2023-03-01T00:03:56;4.50;56.70
78649;DHT22;67962;47.310;9.642;2023-03-01T00:06:23;4.40;56.00
78649;DHT22;67962;47.310;9.642;2023-03-01T00:08:49;4.40;56.50
78649;DHT22;67962;47.310;9.642;2023-03-01T00:11:20;4.30;56.60
78649;DHT22;67962;47.310;9.642;2023-03-01T00:13:48;4.30;56.90
78649;DHT22;67962;47.310;9.642;2023-03-01T00:16:16;4.40;57.30
78649;DHT22;67962;47.310;9.642;2023-03-01T00:18:43;4.30;57.00
78649;DHT22;67962;47.310;9.642;2023-03-01T00:21:08;4.30;57.00
78649;DHT22;67962;47.310;9.642;2023-03-01T00:23:34;4.30;57.10
78649;DHT22;67962;47.310;9.642;2023-03-01T00:26:00;4.20;57.00
78649;DHT22;67962;47.310;9.642;2023-03-01T00:28:26;4.10;57.30
78649;DHT22;67962;47.310;9.642;2023-03-01T00:30:52;4.00;57.80
78649;DHT22;67962;47.310;9.642;2023-03-01T00:33:18;4.10;57.80
78649;DHT22;67962;47.310;9.642;2023-03-01T00:35:44;4.10;57.90
78649;DHT22;67962;47.310;9.642;2023-03-01T00:38:10;4.10;58.30
78649;DHT22;67962;47.310;9.642;2023-03-01T00:40:36;4.10;58.10
78649;DHT22;67962;47.310;9.642;2023-03-01T00:43:03;4.10;57.70
78649;DHT22;67962;47.310;9.642;2023-03-01T00:45:29;4.10;57.90
78649;DHT22;67962;47.310;9.642;2023-03-01T00:47:56;4.00;58.40
78649;DHT22;67962;47.310;9.642;2023-03-01T00:50:23;4.00;58.70
78649;DHT22;67962;47.310;9.642;2023-03-01T00:52:53;4.10;58.60
78649;DHT22;67962;47.310;9.642;2023-03-01T00:55:19;4.20;58.90
78649;DHT22;67962;47.310;9.642;2023-03-01T00:57:44;4.20;58.90
78649;DHT22;67962;47.310;9.642;2023-03-01T01:00:10;4.30;58.60
78649;DHT22;67962;47.310;9.642;2023-03-01T01:02:37;4.40;58.30
78649;DHT22;67962;47.310;9.642;2023-03-01T01:05:03;4.40;58.50
78649;DHT22;67962;47.310;9.642;2023-03-01T01:07:29;4.50;58.20
78649;DHT22;67962;47.310;9.642;2023-03-01T01:09:55;4.50;58.00
78649;DHT22;67962;47.310;9.642;2023-03-01T01:12:21;4.50;58.10
78649;DHT22;67962;47.310;9.642;2023-03-01T01:14:47;4.50;58.30
78649;DHT22;67962;47.310;9.642;2023-03-01T01:17:13;4.60;58.20
78649;DHT22;67962;47.310;9.642;2023-03-01T01:19:38;4.60;57.90
78649;DHT22;67962;47.310;9.642;2023-03-01T01:22:04;4.80;57.60
78649;DHT22;67962;47.310;9.642;2023-03-01T01:24:30;4.80;57.30
78649;DHT22;67962;47.310;9.642;2023-03-01T01:26:56;4.70;57.40
78649;DHT22;67962;47.310;9.642;2023-03-01T01:29:22;4.70;57.60
78649;DHT22;67962;47.310;9.642;2023-03-01T01:31:48;4.70;57.60
78649;DHT22;67962;47.310;9.642;2023-03-01T01:34:16;4.80;57.50
78649;DHT22;67962;47.310;9.642;2023-03-01T01:36:42;4.80;57.40
78649;DHT22;67962;47.310;9.642;2023-03-01T01:39:09;5.00;57.20
78649;DHT22;67962;47.310;9.642;2023-03-01T01:41:40;5.00;56.90
78649;DHT22;67962;47.310;9.642;2023-03-01T01:44:23;5.10;56.70
78649;DHT22;67962;47.310;9.642;2023-03-01T01:49:32;5.00;56.40
78649;DHT22;67962;47.310;9.642;2023-03-01T01:52:22;4.80;56.10
78649;DHT22;67962;47.310;9.642;2023-03-01T01:55:05;4.70;56.30
78649;DHT22;67962;47.310;9.642;2023-03-01T02:00:07;4.50;56.80
78649;DHT22;67962;47.310;9.642;2023-03-01T02:02:33;4.50;57.00
78649;DHT22;67962;47.310;9.642;2023-03-01T02:07:52;4.40;58.00
78649;DHT22;67962;47.310;9.642;2023-03-01T02:10:19;4.50;57.80
78649;DHT22;67962;47.310;9.642;2023-03-01T02:12:45;4.50;57.60
78649;DHT22;67962;47.310;9.642;2023-03-01T02:15:11;4.40;57.30
78649;DHT22;67962;47.310;9.642;2023-03-01T02:17:37;4.20;57.20
78649;DHT22;67962;47.310;9.642;2023-03-01T02:22:38;4.30;58.10
78649;DHT22;67962;47.310;9.642;2023-03-01T02:27:50;4.30;58.20
78649;DHT22;67962;47.310;9.642;2023-03-01T02:30:19;4.30;57.70
78649;DHT22;67962;47.310;9.642;2023-03-01T02:32:46;4.30;57.80
78649;DHT22;67962;47.310;9.642;2023-03-01T02:35:14;4.30;58.20
78649;DHT22;67962;47.310;9.642;2023-03-01T02:37:41;4.30;57.90
78649;DHT22;67962;47.310;9.642;2023-03-01T02:40:11;4.30;58.00
78649;DHT22;67962;47.310;9.642;2023-03-01T02:42:51;4.40;58.40
78649;DHT22;67962;47.310;9.642;2023-03-01T02:45:17;4.30;58.60
78649;DHT22;67962;47.310;9.642;2023-03-01T02:47:42;4.50;58.50
78649;DHT22;67962;47.310;9.642;2023-03-01T02:50:43;4.40;58.20
78649;DHT22;67962;47.310;9.642;2023-03-01T02:53:16;4.40;58.50
78649;DHT22;67962;47.310;9.642;2023-03-01T02:55:42;4.50;58.60
78649;DHT22;67962;47.310;9.642;2023-03-01T02:58:08;4.50;58.00
78649;DHT22;67962;47.310;9.642;2023-03-01T03:00:39;4.60;57.70
78649;DHT22;67962;47.310;9.642;2023-03-01T03:03:09;4.50;57.20
78649;DHT22;67962;47.310;9.642;2023-03-01T03:05:35;4.40;57.90
78649;DHT22;67962;47.310;9.642;2023-03-01T03:08:02;4.40;58.10
78649;DHT22;67962;47.310;9.642;2023-03-01T03:10:31;4.50;58.00
78649;DHT22;67962;47.310;9.642;2023-03-01T03:13:03;4.50;57.80
78649;DHT22;67962;47.310;9.642;2023-03-01T03:15:29;4.50;59.20
78649;DHT22;67962;47.310;9.642;2023-03-01T03:17:57;4.50;58.30
78649;DHT22;67962;47.310;9.642;2023-03-01T03:20:26;4.50;58.50
78649;DHT22;67962;47.310;9.642;2023-03-01T03:22:53;4.60;58.50
78649;DHT22;67962;47.310;9.642;2023-03-01T03:25:21;4.60;58.70
78649;DHT22;67962;47.310;9.642;2023-03-01T03:27:48;4.60;58.20
78649;DHT22;67962;47.310;9.642;2023-03-01T03:30:17;4.70;58.30
78649;DHT22;67962;47.310;9.642;2023-03-01T03:32:45;4.70;58.40
78649;DHT22;67962;47.310;9.642;2023-03-01T03:35:25;4.60;58.50
78649;DHT22;67962;47.310;9.642;2023-03-01T03:37:52;4.60;58.80
78649;DHT22;67962;47.310;9.642;2023-03-01T03:40:46;4.60;58.80
78649;DHT22;67962;47.310;9.642;2023-03-01T03:43:18;4.50;58.30
78649;DHT22;67962;47.310;9.642;2023-03-01T03:45:48;4.50;58.20
78649;DHT22;67962;47.310;9.642;2023-03-01T03:48:14;4.50;58.20
78649;DHT22;67962;47.310;9.642;2023-03-01T03:50:41;4.50;58.40
78649;DHT22;67962;47.310;9.642;2023-03-01T03:53:11;4.50;58.80
78649;DHT22;67962;47.310;9.642;2023-03-01T03:55:38;4.50;58.40
78649;DHT22;67962;47.310;9.642;2023-03-01T03:58:08;4.30;58.80
78649;DHT22;67962;47.310;9.642;2023-03-01T04:00:43;4.30;59.00
78649;DHT22;67962;47.310;9.642;2023-03-01T04:03:10;4.30;59.30
78649;DHT22;67962;47.310;9.642;2023-03-01T04:05:37;4.30;59.80
78649;DHT22;67962;47.310;9.642;2023-03-01T04:08:04;4.40;59.80
78649;DHT22;67962;47.310;9.642;2023-03-01T04:10:35;4.40;59.00
78649;DHT22;67962;47.310;9.642;2023-03-01T04:13:02;4.20;58.60
78649;DHT22;67962;47.310;9.642;2023-03-01T04:15:28;4.20;59.30
78649;DHT22;67962;47.310;9.642;2023-03-01T04:17:55;4.20;58.70
78649;DHT22;67962;47.310;9.642;2023-03-01T04:20:25;4.20;58.90
78649;DHT22;67962;47.310;9.642;2023-03-01T04:25:25;4.10;59.70
78649;DHT22;67962;47.310;9.642;2023-03-01T04:27:51;4.20;59.70
78649;DHT22;67962;47.310;9.642;2023-03-01T04:30:16;4.20;59.60
78649;DHT22;67962;47.310;9.642;2023-03-01T04:32:42;4.30;59.60
78649;DHT22;67962;47.310;9.642;2023-03-01T04:35:08;4.30;60.50
78649;DHT22;67962;47.310;9.642;2023-03-01T04:37:34;4.40;59.60
78649;DHT22;67962;47.310;9.642;2023-03-01T04:40:02;4.30;59.60
78649;DHT22;67962;47.310;9.642;2023-03-01T04:42:37;4.30;59.20
78649;DHT22;67962;47.310;9.642;2023-03-01T04:45:04;4.10;59.10
78649;DHT22;67962;47.310;9.642;2023-03-01T04:47:42;4.00;59.60
78649;DHT22;67962;47.310;9.642;2023-03-01T04:50:09;4.00;60.00
78649;DHT22;67962;47.310;9.642;2023-03-01T04:52:35;4.00;59.90
78649;DHT22;67962;47.310;9.642;2023-03-01T04:55:01;4.00;60.00
78649;DHT22;67962;47.310;9.642;2023-03-01T04:57:27;4.00;60.30
78649;DHT22;67962;47.310;9.642;2023-03-01T04:59:53;4.00;60.20
78649;DHT22;67962;47.310;9.642;2023-03-01T05:02:19;4.00;60.00
78649;DHT22;67962;47.310;9.642;2023-03-01T05:04:44;4.00;59.90
78649;DHT22;67962;47.310;9.642;2023-03-01T05:07:10;4.00;60.20
78649;DHT22;67962;47.310;9.642;2023-03-01T05:09:38;4.00;59.90
78649;DHT22;67962;47.310;9.642;2023-03-01T05:12:04;3.90;60.20
78649;DHT22;67962;47.310;9.642;2023-03-01T05:14:30;3.90;60.10
78649;DHT22;67962;47.310;9.642;2023-03-01T05:16:56;3.90;60.10
78649;DHT22;67962;47.310;9.642;2023-03-01T05:19:30;4.00;60.60
78649;DHT22;67962;47.310;9.642;2023-03-01T05:21:57;4.00;60.60
78649;DHT22;67962;47.310;9.642;2023-03-01T05:24:34;4.00;60.60
78649;DHT22;67962;47.310;9.642;2023-03-01T05:27:01;4.20;60.40
78649;DHT22;67962;47.310;9.642;2023-03-01T05:29:28;4.20;60.20
78649;DHT22;67962;47.310;9.642;2023-03-01T05:31:58;4.30;60.20
78649;DHT22;67962;47.310;9.642;2023-03-01T05:34:29;4.30;60.00
78649;DHT22;67962;47.310;9.642;2023-03-01T05:36:56;4.40;60.20
78649;DHT22;67962;47.310;9.642;2023-03-01T05:39:23;4.40;60.10
78649;DHT22;67962;47.310;9.642;2023-03-01T05:41:58;4.40;60.10
78649;DHT22;67962;47.310;9.642;2023-03-01T05:44:24;4.40;60.30
78649;DHT22;67962;47.310;9.642;2023-03-01T05:46:51;4.40;60.30
78649;DHT22;67962;47.310;9.642;2023-03-01T05:49:16;4.40;60.30
78649;DHT22;67962;47.310;9.642;2023-03-01T05:51:47;4.30;60.30
78649;DHT22;67962;47.310;9.642;2023-03-01T05:54:13;4.40;60.40
78649;DHT22;67962;47.310;9.642;2023-03-01T05:56:38;4.40;60.30
78649;DHT22;67962;47.310;9.642;2023-03-01T05:59:05;4.50;60.00
78649;DHT22;67962;47.310;9.642;2023-03-01T06:01:34;4.50;59.70
78649;DHT22;67962;47.310;9.642;2023-03-01T06:03:59;4.60;59.60
78649;DHT22;67962;47.310;9.642;2023-03-01T06:06:25;4.50;59.90
78649;DHT22;67962;47.310;9.642;2023-03-01T06:08:52;4.50;60.00
78649;DHT22;67962;47.310;9.642;2023-03-01T06:11:18;4.60;59.80
78649;DHT22;67962;47.310;9.642;2023-03-01T06:13:45;4.60;60.70
78649;DHT22;67962;47.310;9.642;2023-03-01T06:16:12;4.50;60.20
78649;DHT22;67962;47.310;9.642;2023-03-01T06:18:38;4.40;60.50
78649;DHT22;67962;47.310;9.642;2023-03-01T06:21:05;4.50;60.40
78649;DHT22;67962;47.310;9.642;2023-03-01T06:23:31;4.50;60.10
78649;DHT22;67962;47.310;9.642;2023-03-01T06:25:57;4.60;60.20
78649;DHT22;67962;47.310;9.642;2023-03-01T06:28:23;4.70;59.80
78649;DHT22;67962;47.310;9.642;2023-03-01T06:30:52;4.80;59.60
78649;DHT22;67962;47.310;9.642;2023-03-01T06:33:19;4.70;59.50
78649;DHT22;67962;47.310;9.642;2023-03-01T06:35:50;4.70;59.80
78649;DHT22;67962;47.310;9.642;2023-03-01T06:38:15;4.70;59.80
78649;DHT22;67962;47.310;9.642;2023-03-01T06:40:44;4.60;59.80
78649;DHT22;67962;47.310;9.642;2023-03-01T06:43:09;4.60;59.90
78649;DHT22;67962;47.310;9.642;2023-03-01T06:45:36;4.60;60.00
78649;DHT22;67962;47.310;9.642;2023-03-01T06:48:04;4.60;60.00
78649;DHT22;67962;47.310;9.642;2023-03-01T06:50:30;4.70;60.10
78649;DHT22;67962;47.310;9.642;2023-03-01T06:52:56;4.70;60.00
78649;DHT22;67962;47.310;9.642;2023-03-01T06:55:22;4.60;59.90
78649;DHT22;67962;47.310;9.642;2023-03-01T06:57:48;4.60;59.90
78649;DHT22;67962;47.310;9.642;2023-03-01T07:00:14;4.60;59.80
78649;DHT22;67962;47.310;9.642;2023-03-01T07:02:40;4.60;59.40
78649;DHT22;67962;47.310;9.642;2023-03-01T07:05:06;4.50;58.40
78649;DHT22;67962;47.310;9.642;2023-03-01T07:07:32;4.50;58.60
78649;DHT22;67962;47.310;9.642;2023-03-01T07:09:57;4.40;58.20
78649;DHT22;67962;47.310;9.642;2023-03-01T07:12:23;4.40;58.40
78649;DHT22;67962;47.310;9.642;2023-03-01T07:14:49;4.30;58.30
78649;DHT22;67962;47.310;9.642;2023-03-01T07:17:14;4.30;58.40
78649;DHT22;67962;47.310;9.642;2023-03-01T07:19:40;4.30;59.20
78649;DHT22;67962;47.310;9.642;2023-03-01T07:22:06;4.30;58.80
78649;DHT22;67962;47.310;9.642;2023-03-01T07:24:33;4.30;58.60
78649;DHT22;67962;47.310;9.642;2023-03-01T07:26:59;4.40;58.90
78649;DHT22;67962;47.310;9.642;2023-03-01T07:29:25;4.40;58.60
78649;DHT22;67962;47.310;9.642;2023-03-01T07:31:50;4.40;58.30
78649;DHT22;67962;47.310;9.642;2023-03-01T07:34:16;4.30;58.70
78649;DHT22;67962;47.310;9.642;2023-03-01T07:36:42;4.30;58.30
78649;DHT22;67962;47.310;9.642;2023-03-01T07:39:10;4.30;58.30
78649;DHT22;67962;47.310;9.642;2023-03-01T07:41:35;4.40;58.30
78649;DHT22;67962;47.310;9.642;2023-03-01T07:44:01;4.30;59.20
78649;DHT22;67962;47.310;9.642;2023-03-01T07:46:27;4.30;59.00
78649;DHT22;67962;47.310;9.642;2023-03-01T07:48:53;4.40;57.90
78649;DHT22;67962;47.310;9.642;2023-03-01T07:51:18;4.40;57.50
78649;DHT22;67962;47.310;9.642;2023-03-01T07:53:46;4.40;57.70
78649;DHT22;67962;47.310;9.642;2023-03-01T07:56:14;4.30;58.20
78649;DHT22;67962;47.310;9.642;2023-03-01T07:58:42;4.40;57.90
78649;DHT22;67962;47.310;9.642;2023-03-01T08:01:15;4.50;58.00
78649;DHT22;67962;47.310;9.642;2023-03-01T08:03:41;4.60;57.60
78649;DHT22;67962;47.310;9.642;2023-03-01T08:06:10;4.60;57.60
78649;DHT22;67962;47.310;9.642;2023-03-01T08:08:36;4.60;57.20
78649;DHT22;67962;47.310;9.642;2023-03-01T08:11:04;4.70;57.70
78649;DHT22;67962;47.310;9.642;2023-03-01T08:13:30;4.60;57.00
78649;DHT22;67962;47.310;9.642;2023-03-01T08:16:08;4.60;57.00
78649;DHT22;67962;47.310;9.642;2023-03-01T08:18:34;4.70;57.70
78649;DHT22;67962;47.310;9.642;2023-03-01T08:21:08;4.80;57.80
78649;DHT22;67962;47.310;9.642;2023-03-01T08:23:34;4.80;58.70
78649;DHT22;67962;47.310;9.642;2023-03-01T08:26:06;4.90;57.50
78649;DHT22;67962;47.310;9.642;2023-03-01T08:28:33;5.00;57.50
78649;DHT22;67962;47.310;9.642;2023-03-01T08:30:58;5.10;56.60
78649;DHT22;67962;47.310;9.642;2023-03-01T08:33:24;5.00;55.70
78649;DHT22;67962;47.310;9.642;2023-03-01T08:35:50;5.00;56.60
78649;DHT22;67962;47.310;9.642;2023-03-01T08:38:15;5.00;56.60
78649;DHT22;67962;47.310;9.642;2023-03-01T08:40:41;5.00;56.40
78649;DHT22;67962;47.310;9.642;2023-03-01T08:43:07;5.00;56.10
78649;DHT22;67962;47.310;9.642;2023-03-01T08:45:32;5.00;56.30
78649;DHT22;67962;47.310;9.642;2023-03-01T08:47:58;5.10;55.80
78649;DHT22;67962;47.310;9.642;2023-03-01T08:50:24;5.00;56.10
78649;DHT22;67962;47.310;9.642;2023-03-01T08:52:50;5.10;55.90
78649;DHT22;67962;47.310;9.642;2023-03-01T08:55:16;5.10;55.60
78649;DHT22;67962;47.310;9.642;2023-03-01T08:57:43;5.10;56.60
78649;DHT22;67962;47.310;9.642;2023-03-01T09:00:10;5.20;55.80
78649;DHT22;67962;47.310;9.642;2023-03-01T09:02:36;5.20;55.40
78649;DHT22;67962;47.310;9.642;2023-03-01T09:05:02;5.30;55.60
78649;DHT22;67962;47.310;9.642;2023-03-01T09:07:28;5.40;55.30
78649;DHT22;67962;47.310;9.642;2023-03-01T09:09:54;5.40;55.50
78649;DHT22;67962;47.310;9.642;2023-03-01T09:12:20;5.30;55.40
78649;DHT22;67962;47.310;9.642;2023-03-01T09:14:46;5.40;56.60
78649;DHT22;67962;47.310;9.642;2023-03-01T09:17:12;5.40;55.90
78649;DHT22;67962;47.310;9.642;2023-03-01T09:19:38;5.40;54.40
78649;DHT22;67962;47.310;9.642;2023-03-01T09:22:04;5.50;55.30
78649;DHT22;67962;47.310;9.642;2023-03-01T09:24:30;5.60;55.10
78649;DHT22;67962;47.310;9.642;2023-03-01T09:26:56;5.60;54.60
78649;DHT22;67962;47.310;9.642;2023-03-01T09:29:22;5.70;54.60
78649;DHT22;67962;47.310;9.642;2023-03-01T09:31:48;5.80;54.30
78649;DHT22;67962;47.310;9.642;2023-03-01T09:34:14;5.80;54.70
78649;DHT22;67962;47.310;9.642;2023-03-01T09:36:41;5.90;54.20
78649;DHT22;67962;47.310;9.642;2023-03-01T09:39:07;6.00;54.20
78649;DHT22;67962;47.310;9.642;2023-03-01T09:42:02;6.00;54.10
78649;DHT22;67962;47.310;9.642;2023-03-01T09:47:35;6.00;54.20
78649;DHT22;67962;47.310;9.642;2023-03-01T09:50:14;6.10;54.10
78649;DHT22;67962;47.310;9.642;2023-03-01T09:55:34;6.20;53.20
78649;DHT22;67962;47.310;9.642;2023-03-01T09:58:13;6.00;50.70
78649;DHT22;67962;47.310;9.642;2023-03-01T10:00:47;6.00;52.50
78649;DHT22;67962;47.310;9.642;2023-03-01T10:06:18;6.20;51.20
78649;DHT22;67962;47.310;9.642;2023-03-01T10:08:56;6.20;51.80
78649;DHT22;67962;47.310;9.642;2023-03-01T10:11:30;6.30;51.90
78649;DHT22;67962;47.310;9.642;2023-03-01T10:16:50;6.50;52.10
78649;DHT22;67962;47.310;9.642;2023-03-01T10:19:30;6.70;51.20
78649;DHT22;67962;47.310;9.642;2023-03-01T10:22:03;6.90;51.00
78649;DHT22;67962;47.310;9.642;2023-03-01T10:24:34;7.00;51.80
78649;DHT22;67962;47.310;9.642;2023-03-01T10:27:24;7.20;50.90
78649;DHT22;67962;47.310;9.642;2023-03-01T10:32:29;7.80;50.80
78649;DHT22;67962;47.310;9.642;2023-03-01T10:34:55;8.00;50.30
78649;DHT22;67962;47.310;9.642;2023-03-01T10:37:22;8.10;49.70
78649;DHT22;67962;47.310;9.642;2023-03-01T10:39:57;7.90;47.50
78649;DHT22;67962;47.310;9.642;2023-03-01T10:42:27;7.90;48.50
78649;DHT22;67962;47.310;9.642;2023-03-01T10:44:53;7.90;49.20
78649;DHT22;67962;47.310;9.642;2023-03-01T10:47:22;8.00;49.70
78649;DHT22;67962;47.310;9.642;2023-03-01T10:50:04;8.10;49.40
78649;DHT22;67962;47.310;9.642;2023-03-01T10:52:39;8.10;48.80
78649;DHT22;67962;47.310;9.642;2023-03-01T10:55:24;8.00;48.60
78649;DHT22;67962;47.310;9.642;2023-03-01T10:58:15;7.90;47.10
78649;DHT22;67962;47.310;9.642;2023-03-01T11:00:53;7.70;46.10
78649;DHT22;67962;47.310;9.642;2023-03-01T11:03:38;7.30;47.00
78649;DHT22;67962;47.310;9.642;2023-03-01T11:08:42;7.30;48.60
78649;DHT22;67962;47.310;9.642;2023-03-01T11:14:12;7.70;49.70
78649;DHT22;67962;47.310;9.642;2023-03-01T11:16:40;7.90;49.70
78649;DHT22;67962;47.310;9.642;2023-03-01T11:21:39;8.20;48.00
78649;DHT22;67962;47.310;9.642;2023-03-01T11:24:11;8.20;47.80
78649;DHT22;67962;47.310;9.642;2023-03-01T11:26:39;8.20;48.30
78649;DHT22;67962;47.310;9.642;2023-03-01T11:29:24;8.20;48.30
78649;DHT22;67962;47.310;9.642;2023-03-01T11:31:53;8.30;48.50
78649;DHT22;67962;47.310;9.642;2023-03-01T11:34:32;8.40;48.40
78649;DHT22;67962;47.310;9.642;2023-03-01T11:37:05;8.40;47.60
78649;DHT22;67962;47.310;9.642;2023-03-01T11:39:43;8.50;48.30
78649;DHT22;67962;47.310;9.642;2023-03-01T11:45:02;8.20;45.50
78649;DHT22;67962;47.310;9.642;2023-03-01T11:50:30;7.90;48.40
78649;DHT22;67962;47.310;9.642;2023-03-01T11:56:43;7.70;46.90
78649;DHT22;67962;47.310;9.642;2023-03-01T12:01:51;7.30;46.90
78649;DHT22;67962;47.310;9.642;2023-03-01T12:10:09;7.30;49.70
78649;DHT22;67962;47.310;9.642;2023-03-01T12:33:18;7.50;49.70
78649;DHT22;67962;47.310;9.642;2023-03-01T12:51:59;7.80;48.90
78649;DHT22;67962;47.310;9.642;2023-03-01T12:54:31;8.00;49.00
78649;DHT22;67962;47.310;9.642;2023-03-01T12:57:09;8.20;47.50
78649;DHT22;67962;47.310;9.642;2023-03-01T13:02:27;8.30;49.10
78649;DHT22;67962;47.310;9.642;2023-03-01T13:05:24;8.40;48.20
78649;DHT22;67962;47.310;9.642;2023-03-01T13:08:01;8.50;48.30
78649;DHT22;67962;47.310;9.642;2023-03-01T13:13:27;8.40;48.60
78649;DHT22;67962;47.310;9.642;2023-03-01T13:15:53;8.50;48.60
78649;DHT22;67962;47.310;9.642;2023-03-01T13:21:03;8.70;48.10
78649;DHT22;67962;47.310;9.642;2023-03-01T13:23:34;8.80;47.80
78649;DHT22;67962;47.310;9.642;2023-03-01T13:26:02;8.70;48.10
78649;DHT22;67962;47.310;9.642;2023-03-01T13:31:08;8.60;47.80
78649;DHT22;67962;47.310;9.642;2023-03-01T13:36:07;8.40;47.50
78649;DHT22;67962;47.310;9.642;2023-03-01T13:38:38;8.40;48.40
78649;DHT22;67962;47.310;9.642;2023-03-01T13:41:04;8.40;48.10
78649;DHT22;67962;47.310;9.642;2023-03-01T13:43:36;8.40;47.50
78649;DHT22;67962;47.310;9.642;2023-03-01T13:46:12;8.30;46.40
78649;DHT22;67962;47.310;9.642;2023-03-01T13:48:44;8.10;47.70
78649;DHT22;67962;47.310;9.642;2023-03-01T13:51:11;8.10;48.40
78649;DHT22;67962;47.310;9.642;2023-03-01T13:53:44;8.10;48.60
78649;DHT22;67962;47.310;9.642;2023-03-01T13:56:25;8.10;48.90
78649;DHT22;67962;47.310;9.642;2023-03-01T13:58:56;8.20;48.60
78649;DHT22;67962;47.310;9.642;2023-03-01T14:01:25;8.30;49.00
78649;DHT22;67962;47.310;9.642;2023-03-01T14:03:51;8.40;49.10
78649;DHT22;67962;47.310;9.642;2023-03-01T14:06:22;8.40;48.50
78649;DHT22;67962;47.310;9.642;2023-03-01T14:08:51;8.40;48.50
78649;DHT22;67962;47.310;9.642;2023-03-01T14:14:30;8.20;48.50
78649;DHT22;67962;47.310;9.642;2023-03-01T14:19:38;8.10;49.10
78649;DHT22;67962;47.310;9.642;2023-03-01T14:24:44;8.00;48.00
78649;DHT22;67962;47.310;9.642;2023-03-01T14:27:12;8.00;49.00
78649;DHT22;67962;47.310;9.642;2023-03-01T14:29:39;7.90;49.70
78649;DHT22;67962;47.310;9.642;2023-03-01T14:34:46;8.00;50.00
78649;DHT22;67962;47.310;9.642;2023-03-01T14:39:44;8.00;49.30
78649;DHT22;67962;47.310;9.642;2023-03-01T14:42:10;8.00;49.10
78649;DHT22;67962;47.310;9.642;2023-03-01T14:44:37;7.80;49.70
78649;DHT22;67962;47.310;9.642;2023-03-01T14:47:04;7.70;50.70
78649;DHT22;67962;47.310;9.642;2023-03-01T14:49:31;7.80;50.40
78649;DHT22;67962;47.310;9.642;2023-03-01T14:52:06;7.90;50.50
78649;DHT22;67962;47.310;9.642;2023-03-01T14:54:43;8.00;50.60
78649;DHT22;67962;47.310;9.642;2023-03-01T14:57:25;8.00;49.70
78649;DHT22;67962;47.310;9.642;2023-03-01T14:59:57;7.90;50.00
78649;DHT22;67962;47.310;9.642;2023-03-01T15:02:25;8.00;50.20
78649;DHT22;67962;47.310;9.642;2023-03-01T15:04:54;7.80;48.80
78649;DHT22;67962;47.310;9.642;2023-03-01T15:07:24;7.40;49.40
78649;DHT22;67962;47.310;9.642;2023-03-01T15:09:51;7.40;48.80
78649;DHT22;67962;47.310;9.642;2023-03-01T15:14:58;7.20;50.60
78649;DHT22;67962;47.310;9.642;2023-03-01T15:17:36;7.30;51.00
78649;DHT22;67962;47.310;9.642;2023-03-01T15:20:06;7.20;50.90
78649;DHT22;67962;47.310;9.642;2023-03-01T15:22:32;7.30;51.20
78649;DHT22;67962;47.310;9.642;2023-03-01T15:24:58;7.20;50.80
78649;DHT22;67962;47.310;9.642;2023-03-01T15:27:25;7.10;51.60
78649;DHT22;67962;47.310;9.642;2023-03-01T15:29:56;7.00;51.80
78649;DHT22;67962;47.310;9.642;2023-03-01T15:32:26;7.00;51.40
78649;DHT22;67962;47.310;9.642;2023-03-01T15:34:54;7.00;51.60
78649;DHT22;67962;47.310;9.642;2023-03-01T15:37:44;7.00;51.50
78649;DHT22;67962;47.310;9.642;2023-03-01T15:40:25;7.00;52.10
78649;DHT22;67962;47.310;9.642;2023-03-01T15:43:05;6.90;52.30
78649;DHT22;67962;47.310;9.642;2023-03-01T15:45:32;6.90;52.40
78649;DHT22;67962;47.310;9.642;2023-03-01T15:48:13;7.00;52.20
78649;DHT22;67962;47.310;9.642;2023-03-01T15:50:40;6.90;52.40
78649;DHT22;67962;47.310;9.642;2023-03-01T15:53:10;6.90;52.70
78649;DHT22;67962;47.310;9.642;2023-03-01T15:55:37;6.80;52.70
78649;DHT22;67962;47.310;9.642;2023-03-01T15:58:09;6.70;52.50
78649;DHT22;67962;47.310;9.642;2023-03-01T16:00:35;6.60;52.30
78649;DHT22;67962;47.310;9.642;2023-03-01T16:03:01;6.60;53.20
78649;DHT22;67962;47.310;9.642;2023-03-01T16:05:28;6.70;53.30
78649;DHT22;67962;47.310;9.642;2023-03-01T16:07:56;6.70;53.10
78649;DHT22;67962;47.310;9.642;2023-03-01T16:10:22;6.80;53.00
78649;DHT22;67962;47.310;9.642;2023-03-01T16:12:49;6.70;53.50
78649;DHT22;67962;47.310;9.642;2023-03-01T16:15:18;6.70;53.60
78649;DHT22;67962;47.310;9.642;2023-03-01T16:17:44;6.70;54.10
78649;DHT22;67962;47.310;9.642;2023-03-01T16:20:11;6.70;53.90
78649;DHT22;67962;47.310;9.642;2023-03-01T16:22:37;6.70;53.40
78649;DHT22;67962;47.310;9.642;2023-03-01T16:25:03;6.70;53.70
78649;DHT22;67962;47.310;9.642;2023-03-01T16:27:30;6.60;52.80
78649;DHT22;67962;47.310;9.642;2023-03-01T16:29:56;6.60;53.00
78649;DHT22;67962;47.310;9.642;2023-03-01T16:32:22;6.60;53.50
78649;DHT22;67962;47.310;9.642;2023-03-01T16:34:47;6.60;54.10
78649;DHT22;67962;47.310;9.642;2023-03-01T16:37:15;6.60;54.00
78649;DHT22;67962;47.310;9.642;2023-03-01T16:39:41;6.60;53.90
78649;DHT22;67962;47.310;9.642;2023-03-01T16:42:09;6.50;53.70
78649;DHT22;67962;47.310;9.642;2023-03-01T16:44:35;6.50;53.90
78649;DHT22;67962;47.310;9.642;2023-03-01T16:47:00;6.40;54.20
78649;DHT22;67962;47.310;9.642;2023-03-01T16:49:28;6.40;54.50
78649;DHT22;67962;47.310;9.642;2023-03-01T16:51:54;6.40;54.60
78649;DHT22;67962;47.310;9.642;2023-03-01T16:54:20;6.40;54.50
78649;DHT22;67962;47.310;9.642;2023-03-01T16:56:45;6.30;54.60
78649;DHT22;67962;47.310;9.642;2023-03-01T16:59:11;6.40;55.20
78649;DHT22;67962;47.310;9.642;2023-03-01T17:01:37;6.40;54.90
78649;DHT22;67962;47.310;9.642;2023-03-01T17:04:06;6.40;55.00
78649;DHT22;67962;47.310;9.642;2023-03-01T17:06:32;6.30;54.60
78649;DHT22;67962;47.310;9.642;2023-03-01T17:08:58;6.30;54.80
78649;DHT22;67962;47.310;9.642;2023-03-01T17:11:25;6.40;55.20
78649;DHT22;67962;47.310;9.642;2023-03-01T17:13:51;6.40;55.50
78649;DHT22;67962;47.310;9.642;2023-03-01T17:16:18;6.30;55.50
78649;DHT22;67962;47.310;9.642;2023-03-01T17:18:45;6.30;55.60
78649;DHT22;67962;47.310;9.642;2023-03-01T17:21:12;6.50;55.20
78649;DHT22;67962;47.310;9.642;2023-03-01T17:23:40;6.40;54.60
78649;DHT22;67962;47.310;9.642;2023-03-01T17:26:07;6.40;54.80
78649;DHT22;67962;47.310;9.642;2023-03-01T17:28:34;6.40;54.50
78649;DHT22;67962;47.310;9.642;2023-03-01T17:31:02;6.30;55.40
78649;DHT22;67962;47.310;9.642;2023-03-01T17:33:28;6.40;55.00
78649;DHT22;67962;47.310;9.642;2023-03-01T17:35:57;6.30;55.00
78649;DHT22;67962;47.310;9.642;2023-03-01T17:38:24;6.30;55.30
78649;DHT22;67962;47.310;9.642;2023-03-01T17:40:50;6.30;55.30
78649;DHT22;67962;47.310;9.642;2023-03-01T17:43:16;6.40;55.20
78649;DHT22;67962;47.310;9.642;2023-03-01T17:45:44;6.40;54.80
78649;DHT22;67962;47.310;9.642;2023-03-01T17:48:13;6.30;55.40
78649;DHT22;67962;47.310;9.642;2023-03-01T17:50:40;6.30;55.30
78649;DHT22;67962;47.310;9.642;2023-03-01T17:53:06;6.30;55.60
78649;DHT22;67962;47.310;9.642;2023-03-01T17:55:38;6.30;55.10
78649;DHT22;67962;47.310;9.642;2023-03-01T17:58:05;6.30;54.90